sensor_id;sensor_type;location;lat;lon;timestamp;P1;durP1;ratioP1;P2;durP2;ratioP2
23716;SDS011;22094;52.130;5.598;2023-04-25T00:01:55;29.50;;;7.65;;
23716;SDS011;22094;52.130;5.598;2023-04-25T00:04:21;33.58;;;6.95;;
23716;SDS011;22094;52.130;5.598;2023-04-25T00:06:47;30.17;;;7.10;;
23716;SDS011;22094;52.130;5.598;2023-04-25T00:09:13;36.35;;;8.15;;
23716;SDS011;22094;52.130;5.598;2023-04-25T00:11:39;35.22;;;8.25;;
23716;SDS011;22094;52.130;5.598;2023-04-25T00:14:05;30.65;;;8.32;;
23716;SDS011;22094;52.130;5.598;2023-04-25T00:16:31;25.83;;;6.75;;
23716;SDS011;22094;52.130;5.598;2023-04-25T00:18:59;38.22;;;7.25;;
23716;SDS011;22094;52.130;5.598;2023-04-25T00:21:27;31.33;;;8.00;;
23716;SDS011;22094;52.130;5.598;2023-04-25T00:23:53;40.42;;;7.88;;
23716;SDS011;22094;52.130;5.598;2023-04-25T00:26:19;33.40;;;8.13;;
23716;SDS011;22094;52.130;5.598;2023-04-25T00:28:46;28.88;;;7.85;;
23716;SDS011;22094;52.130;5.598;2023-04-25T00:31:12;29.45;;;7.88;;
23716;SDS011;22094;52.130;5.598;2023-04-25T00:33:37;35.88;;;8.10;;
23716;SDS011;22094;52.130;5.598;2023-04-25T00:36:03;33.45;;;7.40;;
23716;SDS011;22094;52.130;5.598;2023-04-25T00:38:29;32.60;;;7.32;;
23716;SDS011;22094;52.130;5.598;2023-04-25T00:40:54;32.95;;;7.88;;
23716;SDS011;22094;52.130;5.598;2023-04-25T00:43:20;43.95;;;8.82;;
23716;SDS011;22094;52.130;5.598;2023-04-25T00:45:46;31.65;;;7.75;;
23716;SDS011;22094;52.130;5.598;2023-04-25T00:48:13;32.90;;;8.88;;
23716;SDS011;22094;52.130;5.598;2023-04-25T00:50:39;37.67;;;8.88;;
23716;SDS011;22094;52.130;5.598;2023-04-25T00:53:05;39.35;;;8.85;;
23716;SDS011;22094;52.130;5.598;2023-04-25T00:55:31;43.70;;;8.68;;
23716;SDS011;22094;52.130;5.598;2023-04-25T00:57:59;36.13;;;8.48;;
23716;SDS011;22094;52.130;5.598;2023-04-25T01:00:25;35.53;;;8.38;;
23716;SDS011;22094;52.130;5.598;2023-04-25T01:02:51;41.05;;;9.30;;
23716;SDS011;22094;52.130;5.598;2023-04-25T01:05:17;29.15;;;8.32;;
23716;SDS011;22094;52.130;5.598;2023-04-25T01:07:43;40.88;;;9.15;;
23716;SDS011;22094;52.130;5.598;2023-04-25T01:10:10;33.72;;;8.18;;
23716;SDS011;22094;52.130;5.598;2023-04-25T01:12:36;34.65;;;8.35;;
23716;SDS011;22094;52.130;5.598;2023-04-25T01:15:02;28.67;;;8.02;;
23716;SDS011;22094;52.130;5.598;2023-04-25T01:17:28;25.30;;;8.63;;
23716;SDS011;22094;52.130;5.598;2023-04-25T01:19:54;27.45;;;7.75;;
23716;SDS011;22094;52.130;5.598;2023-04-25T01:22:20;33.75;;;8.48;;
23716;SDS011;22094;52.130;5.598;2023-04-25T01:24:46;33.22;;;8.38;;
23716;SDS011;22094;52.130;5.598;2023-04-25T01:27:12;36.28;;;9.18;;
23716;SDS011;22094;52.130;5.598;2023-04-25T01:29:37;33.72;;;9.27;;
23716;SDS011;22094;52.130;5.598;2023-04-25T01:32:04;31.98;;;8.70;;
23716;SDS011;22094;52.130;5.598;2023-04-25T01:34:30;30.10;;;8.80;;
23716;SDS011;22094;52.130;5.598;2023-04-25T01:36:56;30.75;;;8.38;;
23716;SDS011;22094;52.130;5.598;2023-04-25T01:39:24;40.92;;;9.32;;
23716;SDS011;22094;52.130;5.598;2023-04-25T01:41:50;37.65;;;9.13;;
23716;SDS011;22094;52.130;5.598;2023-04-25T01:44:16;33.33;;;9.00;;
23716;SDS011;22094;52.130;5.598;2023-04-25T01:46:42;39.22;;;8.57;;
23716;SDS011;22094;52.130;5.598;2023-04-25T01:49:07;46.38;;;10.07;;
23716;SDS011;22094;52.130;5.598;2023-04-25T01:51:33;38.90;;;8.48;;
23716;SDS011;22094;52.130;5.598;2023-04-25T01:53:58;34.80;;;8.55;;
23716;SDS011;22094;52.130;5.598;2023-04-25T01:56:25;38.55;;;8.73;;
23716;SDS011;22094;52.130;5.598;2023-04-25T01:58:55;31.98;;;7.97;;
23716;SDS011;22094;52.130;5.598;2023-04-25T02:01:20;29.95;;;7.80;;
23716;SDS011;22094;52.130;5.598;2023-04-25T02:03:46;37.53;;;8.85;;
23716;SDS011;22094;52.130;5.598;2023-04-25T02:06:12;33.38;;;7.90;;
23716;SDS011;22094;52.130;5.598;2023-04-25T02:08:37;31.23;;;8.52;;
23716;SDS011;22094;52.130;5.598;2023-04-25T02:11:03;28.60;;;8.07;;
23716;SDS011;22094;52.130;5.598;2023-04-25T02:13:28;29.38;;;7.88;;
23716;SDS011;22094;52.130;5.598;2023-04-25T02:15:54;28.33;;;8.70;;
23716;SDS011;22094;52.130;5.598;2023-04-25T02:18:19;31.65;;;8.38;;
23716;SDS011;22094;52.130;5.598;2023-04-25T02:20:46;41.05;;;8.05;;
23716;SDS011;22094;52.130;5.598;2023-04-25T02:23:11;37.05;;;8.73;;
23716;SDS011;22094;52.130;5.598;2023-04-25T02:25:37;29.33;;;8.45;;
23716;SDS011;22094;52.130;5.598;2023-04-25T02:28:03;30.98;;;8.45;;
23716;SDS011;22094;52.130;5.598;2023-04-25T02:30:28;31.27;;;8.13;;
23716;SDS011;22094;52.130;5.598;2023-04-25T02:32:54;33.80;;;7.68;;
23716;SDS011;22094;52.130;5.598;2023-04-25T02:35:20;28.00;;;8.10;;
23716;SDS011;22094;52.130;5.598;2023-04-25T02:37:45;26.42;;;6.85;;
23716;SDS011;22094;52.130;5.598;2023-04-25T02:40:11;27.48;;;7.47;;
23716;SDS011;22094;52.130;5.598;2023-04-25T02:42:37;25.33;;;7.97;;
23716;SDS011;22094;52.130;5.598;2023-04-25T02:45:02;36.45;;;8.10;;
23716;SDS011;22094;52.130;5.598;2023-04-25T02:47:28;31.75;;;8.30;;
23716;SDS011;22094;52.130;5.598;2023-04-25T02:49:54;29.48;;;8.20;;
23716;SDS011;22094;52.130;5.598;2023-04-25T02:52:19;33.00;;;8.40;;
23716;SDS011;22094;52.130;5.598;2023-04-25T02:54:46;27.40;;;8.60;;
23716;SDS011;22094;52.130;5.598;2023-04-25T02:57:11;38.38;;;8.68;;
23716;SDS011;22094;52.130;5.598;2023-04-25T02:59:37;26.33;;;8.07;;
23716;SDS011;22094;52.130;5.598;2023-04-25T03:02:03;34.90;;;8.38;;
23716;SDS011;22094;52.130;5.598;2023-04-25T03:04:28;27.30;;;8.38;;
23716;SDS011;22094;52.130;5.598;2023-04-25T03:06:54;33.95;;;9.15;;
23716;SDS011;22094;52.130;5.598;2023-04-25T03:09:20;38.47;;;9.05;;
23716;SDS011;22094;52.130;5.598;2023-04-25T03:11:46;43.35;;;11.38;;
23716;SDS011;22094;52.130;5.598;2023-04-25T03:14:11;46.42;;;12.60;;
23716;SDS011;22094;52.130;5.598;2023-04-25T03:16:38;40.40;;;13.95;;
23716;SDS011;22094;52.130;5.598;2023-04-25T03:19:04;39.20;;;12.15;;
23716;SDS011;22094;52.130;5.598;2023-04-25T03:21:31;30.73;;;10.50;;
23716;SDS011;22094;52.130;5.598;2023-04-25T03:23:58;38.67;;;9.48;;
23716;SDS011;22094;52.130;5.598;2023-04-25T03:26:24;34.80;;;9.82;;
23716;SDS011;22094;52.130;5.598;2023-04-25T03:28:49;31.90;;;9.13;;
23716;SDS011;22094;52.130;5.598;2023-04-25T03:31:15;35.83;;;9.68;;
23716;SDS011;22094;52.130;5.598;2023-04-25T03:33:40;35.10;;;9.13;;
23716;SDS011;22094;52.130;5.598;2023-04-25T03:36:06;28.20;;;7.97;;
23716;SDS011;22094;52.130;5.598;2023-04-25T03:38:32;25.40;;;8.10;;
23716;SDS011;22094;52.130;5.598;2023-04-25T03:40:58;28.52;;;8.70;;
23716;SDS011;22094;52.130;5.598;2023-04-25T03:43:23;33.38;;;8.65;;
23716;SDS011;22094;52.130;5.598;2023-04-25T03:45:50;33.97;;;8.95;;
23716;SDS011;22094;52.130;5.598;2023-04-25T03:48:16;31.85;;;8.00;;
23716;SDS011;22094;52.130;5.598;2023-04-25T03:50:41;27.00;;;7.93;;
23716;SDS011;22094;52.130;5.598;2023-04-25T03:53:07;27.10;;;8.20;;
23716;SDS011;22094;52.130;5.598;2023-04-25T03:55:32;36.70;;;7.90;;
23716;SDS011;22094;52.130;5.598;2023-04-25T03:57:58;36.00;;;8.60;;
23716;SDS011;22094;52.130;5.598;2023-04-25T04:02:55;37.50;;;9.70;;
23716;SDS011;22094;52.130;5.598;2023-04-25T04:05:21;32.83;;;9.30;;
23716;SDS011;22094;52.130;5.598;2023-04-25T04:07:48;37.63;;;9.48;;
23716;SDS011;22094;52.130;5.598;2023-04-25T04:10:13;29.30;;;8.45;;
23716;SDS011;22094;52.130;5.598;2023-04-25T04:12:39;31.58;;;8.40;;
23716;SDS011;22094;52.130;5.598;2023-04-25T04:15:05;30.90;;;8.10;;
23716;SDS011;22094;52.130;5.598;2023-04-25T04:17:31;25.77;;;7.90;;
23716;SDS011;22094;52.130;5.598;2023-04-25T04:19:57;26.08;;;8.25;;
23716;SDS011;22094;52.130;5.598;2023-04-25T04:22:23;34.17;;;7.82;;
23716;SDS011;22094;52.130;5.598;2023-04-25T04:24:49;29.23;;;7.43;;
23716;SDS011;22094;52.130;5.598;2023-04-25T04:27:15;30.42;;;8.27;;
23716;SDS011;22094;52.130;5.598;2023-04-25T04:29:44;25.33;;;8.00;;
23716;SDS011;22094;52.130;5.598;2023-04-25T04:32:11;30.10;;;7.75;;
23716;SDS011;22094;52.130;5.598;2023-04-25T04:34:38;27.30;;;7.20;;
23716;SDS011;22094;52.130;5.598;2023-04-25T04:37:04;30.35;;;7.68;;
23716;SDS011;22094;52.130;5.598;2023-04-25T04:39:31;26.35;;;7.03;;
23716;SDS011;22094;52.130;5.598;2023-04-25T04:41:57;25.77;;;7.70;;
23716;SDS011;22094;52.130;5.598;2023-04-25T04:44:23;31.40;;;7.43;;
23716;SDS011;22094;52.130;5.598;2023-04-25T04:46:50;34.85;;;8.20;;
23716;SDS011;22094;52.130;5.598;2023-04-25T04:49:16;29.00;;;7.15;;
23716;SDS011;22094;52.130;5.598;2023-04-25T04:51:42;22.15;;;6.63;;
23716;SDS011;22094;52.130;5.598;2023-04-25T04:54:11;20.80;;;6.97;;
23716;SDS011;22094;52.130;5.598;2023-04-25T04:56:37;22.58;;;6.70;;
23716;SDS011;22094;52.130;5.598;2023-04-25T04:59:03;18.33;;;6.22;;
23716;SDS011;22094;52.130;5.598;2023-04-25T05:01:28;21.70;;;6.82;;
23716;SDS011;22094;52.130;5.598;2023-04-25T05:03:55;22.77;;;7.20;;
23716;SDS011;22094;52.130;5.598;2023-04-25T05:06:25;18.48;;;7.00;;
23716;SDS011;22094;52.130;5.598;2023-04-25T05:08:51;23.88;;;7.90;;
23716;SDS011;22094;52.130;5.598;2023-04-25T05:11:17;24.25;;;8.10;;
23716;SDS011;22094;52.130;5.598;2023-04-25T05:13:43;22.65;;;8.20;;
23716;SDS011;22094;52.130;5.598;2023-04-25T05:16:09;20.50;;;8.35;;
23716;SDS011;22094;52.130;5.598;2023-04-25T05:18:34;16.05;;;7.10;;
23716;SDS011;22094;52.130;5.598;2023-04-25T05:21:01;19.58;;;7.20;;
23716;SDS011;22094;52.130;5.598;2023-04-25T05:23:26;21.90;;;6.88;;
23716;SDS011;22094;52.130;5.598;2023-04-25T05:25:52;17.45;;;5.90;;
23716;SDS011;22094;52.130;5.598;2023-04-25T05:28:18;20.52;;;5.97;;
23716;SDS011;22094;52.130;5.598;2023-04-25T05:30:44;16.23;;;5.80;;
23716;SDS011;22094;52.130;5.598;2023-04-25T05:33:09;15.70;;;5.40;;
23716;SDS011;22094;52.130;5.598;2023-04-25T05:35:35;22.48;;;6.25;;
23716;SDS011;22094;52.130;5.598;2023-04-25T05:38:00;15.40;;;6.43;;
23716;SDS011;22094;52.130;5.598;2023-04-25T05:40:26;16.77;;;6.25;;
23716;SDS011;22094;52.130;5.598;2023-04-25T05:42:51;21.25;;;7.03;;
23716;SDS011;22094;52.130;5.598;2023-04-25T05:45:17;25.77;;;6.22;;
23716;SDS011;22094;52.130;5.598;2023-04-25T05:47:42;18.60;;;5.72;;
23716;SDS011;22094;52.130;5.598;2023-04-25T05:50:08;17.15;;;5.90;;
23716;SDS011;22094;52.130;5.598;2023-04-25T05:52:34;22.23;;;5.65;;
23716;SDS011;22094;52.130;5.598;2023-04-25T05:54:59;13.32;;;5.10;;
23716;SDS011;22094;52.130;5.598;2023-04-25T05:57:25;12.32;;;4.55;;
23716;SDS011;22094;52.130;5.598;2023-04-25T05:59:52;12.07;;;4.65;;
23716;SDS011;22094;52.130;5.598;2023-04-25T06:02:18;18.77;;;5.07;;
23716;SDS011;22094;52.130;5.598;2023-04-25T06:04:45;9.15;;;3.97;;
23716;SDS011;22094;52.130;5.598;2023-04-25T06:07:11;13.95;;;4.68;;
23716;SDS011;22094;52.130;5.598;2023-04-25T06:09:37;13.20;;;4.47;;
23716;SDS011;22094;52.130;5.598;2023-04-25T06:12:04;10.45;;;4.00;;
23716;SDS011;22094;52.130;5.598;2023-04-25T06:14:30;12.95;;;4.85;;
23716;SDS011;22094;52.130;5.598;2023-04-25T06:16:56;8.50;;;3.33;;
23716;SDS011;22094;52.130;5.598;2023-04-25T06:19:22;10.48;;;3.60;;
23716;SDS011;22094;52.130;5.598;2023-04-25T06:21:47;8.10;;;3.38;;
23716;SDS011;22094;52.130;5.598;2023-04-25T06:24:13;7.95;;;3.85;;
23716;SDS011;22094;52.130;5.598;2023-04-25T06:26:39;13.40;;;3.80;;
23716;SDS011;22094;52.130;5.598;2023-04-25T06:29:04;13.48;;;4.13;;
23716;SDS011;22094;52.130;5.598;2023-04-25T06:31:30;10.18;;;3.78;;
23716;SDS011;22094;52.130;5.598;2023-04-25T06:33:57;11.27;;;3.85;;
23716;SDS011;22094;52.130;5.598;2023-04-25T06:36:23;13.75;;;3.95;;
23716;SDS011;22094;52.130;5.598;2023-04-25T06:38:52;8.32;;;3.65;;
23716;SDS011;22094;52.130;5.598;2023-04-25T06:41:18;12.13;;;3.80;;
23716;SDS011;22094;52.130;5.598;2023-04-25T06:43:43;7.95;;;2.88;;
23716;SDS011;22094;52.130;5.598;2023-04-25T06:46:09;7.00;;;2.42;;
23716;SDS011;22094;52.130;5.598;2023-04-25T06:48:35;6.85;;;2.58;;
23716;SDS011;22094;52.130;5.598;2023-04-25T06:51:01;8.48;;;2.58;;
23716;SDS011;22094;52.130;5.598;2023-04-25T06:53:26;10.32;;;2.67;;
23716;SDS011;22094;52.130;5.598;2023-04-25T06:55:52;9.30;;;2.80;;
23716;SDS011;22094;52.130;5.598;2023-04-25T06:58:18;12.18;;;3.60;;
23716;SDS011;22094;52.130;5.598;2023-04-25T07:00:43;13.25;;;3.75;;
23716;SDS011;22094;52.130;5.598;2023-04-25T07:03:09;12.88;;;3.15;;
23716;SDS011;22094;52.130;5.598;2023-04-25T07:05:35;9.82;;;2.95;;
23716;SDS011;22094;52.130;5.598;2023-04-25T07:08:01;13.80;;;3.30;;
23716;SDS011;22094;52.130;5.598;2023-04-25T07:10:27;10.68;;;3.38;;
23716;SDS011;22094;52.130;5.598;2023-04-25T07:12:53;9.70;;;3.05;;
23716;SDS011;22094;52.130;5.598;2023-04-25T07:15:19;13.30;;;3.85;;
23716;SDS011;22094;52.130;5.598;2023-04-25T07:17:45;10.65;;;4.65;;
23716;SDS011;22094;52.130;5.598;2023-04-25T07:20:11;10.98;;;4.10;;
23716;SDS011;22094;52.130;5.598;2023-04-25T07:22:37;12.82;;;3.92;;
23716;SDS011;22094;52.130;5.598;2023-04-25T07:25:02;11.25;;;3.83;;
23716;SDS011;22094;52.130;5.598;2023-04-25T07:27:29;11.63;;;3.00;;
23716;SDS011;22094;52.130;5.598;2023-04-25T07:29:57;9.65;;;3.58;;
23716;SDS011;22094;52.130;5.598;2023-04-25T07:32:23;11.18;;;3.83;;
23716;SDS011;22094;52.130;5.598;2023-04-25T07:34:50;10.50;;;2.90;;
23716;SDS011;22094;52.130;5.598;2023-04-25T07:37:16;8.05;;;2.83;;
23716;SDS011;22094;52.130;5.598;2023-04-25T07:39:46;10.32;;;3.10;;
23716;SDS011;22094;52.130;5.598;2023-04-25T07:42:12;11.13;;;2.65;;
23716;SDS011;22094;52.130;5.598;2023-04-25T07:44:38;12.07;;;2.45;;
23716;SDS011;22094;52.130;5.598;2023-04-25T07:47:05;8.30;;;2.40;;
23716;SDS011;22094;52.130;5.598;2023-04-25T07:49:35;7.47;;;2.22;;
23716;SDS011;22094;52.130;5.598;2023-04-25T07:52:04;11.80;;;2.22;;
23716;SDS011;22094;52.130;5.598;2023-04-25T07:54:31;8.73;;;2.33;;
23716;SDS011;22094;52.130;5.598;2023-04-25T07:56:59;8.35;;;2.00;;
23716;SDS011;22094;52.130;5.598;2023-04-25T07:59:25;8.75;;;1.95;;
23716;SDS011;22094;52.130;5.598;2023-04-25T08:01:50;11.07;;;2.05;;
23716;SDS011;22094;52.130;5.598;2023-04-25T08:04:16;7.30;;;2.45;;
23716;SDS011;22094;52.130;5.598;2023-04-25T08:06:42;11.05;;;1.88;;
23716;SDS011;22094;52.130;5.598;2023-04-25T08:09:08;11.93;;;2.20;;
23716;SDS011;22094;52.130;5.598;2023-04-25T08:11:35;11.50;;;2.63;;
23716;SDS011;22094;52.130;5.598;2023-04-25T08:14:01;9.15;;;2.13;;
23716;SDS011;22094;52.130;5.598;2023-04-25T08:16:27;6.57;;;2.13;;
23716;SDS011;22094;52.130;5.598;2023-04-25T08:18:53;12.30;;;2.30;;
23716;SDS011;22094;52.130;5.598;2023-04-25T08:21:18;10.35;;;2.53;;
23716;SDS011;22094;52.130;5.598;2023-04-25T08:23:45;7.32;;;2.15;;
23716;SDS011;22094;52.130;5.598;2023-04-25T08:26:10;7.68;;;2.10;;
23716;SDS011;22094;52.130;5.598;2023-04-25T08:28:36;9.68;;;2.15;;
23716;SDS011;22094;52.130;5.598;2023-04-25T08:31:02;11.65;;;2.35;;
23716;SDS011;22094;52.130;5.598;2023-04-25T08:33:27;10.35;;;2.55;;
23716;SDS011;22094;52.130;5.598;2023-04-25T08:35:53;13.75;;;2.53;;
23716;SDS011;22094;52.130;5.598;2023-04-25T08:38:19;10.18;;;2.55;;
23716;SDS011;22094;52.130;5.598;2023-04-25T08:40:45;11.52;;;2.63;;
23716;SDS011;22094;52.130;5.598;2023-04-25T08:43:15;6.90;;;1.92;;
23716;SDS011;22094;52.130;5.598;2023-04-25T08:45:44;10.07;;;2.50;;
23716;SDS011;22094;52.130;5.598;2023-04-25T08:48:11;10.23;;;2.13;;
23716;SDS011;22094;52.130;5.598;2023-04-25T08:50:44;11.43;;;2.67;;
23716;SDS011;22094;52.130;5.598;2023-04-25T08:53:14;7.68;;;2.20;;
23716;SDS011;22094;52.130;5.598;2023-04-25T08:55:43;5.72;;;1.98;;
23716;SDS011;22094;52.130;5.598;2023-04-25T08:58:10;8.80;;;2.05;;
23716;SDS011;22094;52.130;5.598;2023-04-25T09:00:37;5.90;;;1.67;;
23716;SDS011;22094;52.130;5.598;2023-04-25T09:03:02;7.25;;;1.80;;
23716;SDS011;22094;52.130;5.598;2023-04-25T09:05:28;9.65;;;2.13;;
23716;SDS011;22094;52.130;5.598;2023-04-25T09:07:55;8.65;;;1.77;;
23716;SDS011;22094;52.130;5.598;2023-04-25T09:10:21;6.60;;;1.67;;
23716;SDS011;22094;52.130;5.598;2023-04-25T09:13:07;9.23;;;1.70;;
23716;SDS011;22094;52.130;5.598;2023-04-25T09:15:47;7.43;;;2.08;;
23716;SDS011;22094;52.130;5.598;2023-04-25T09:20:53;4.65;;;1.60;;
23716;SDS011;22094;52.130;5.598;2023-04-25T09:23:19;8.43;;;1.73;;
23716;SDS011;22094;52.130;5.598;2023-04-25T09:25:49;7.70;;;2.08;;
23716;SDS011;22094;52.130;5.598;2023-04-25T09:28:22;5.85;;;1.40;;
23716;SDS011;22094;52.130;5.598;2023-04-25T09:30:50;5.55;;;2.13;;
23716;SDS011;22094;52.130;5.598;2023-04-25T09:33:20;6.30;;;1.92;;
23716;SDS011;22094;52.130;5.598;2023-04-25T09:35:52;9.18;;;2.05;;
23716;SDS011;22094;52.130;5.598;2023-04-25T09:38:20;5.47;;;1.42;;
23716;SDS011;22094;52.130;5.598;2023-04-25T09:40:47;6.45;;;1.42;;
23716;SDS011;22094;52.130;5.598;2023-04-25T09:43:19;7.05;;;1.40;;
23716;SDS011;22094;52.130;5.598;2023-04-25T09:45:46;4.88;;;1.67;;
23716;SDS011;22094;52.130;5.598;2023-04-25T09:48:16;3.35;;;1.50;;
23716;SDS011;22094;52.130;5.598;2023-04-25T09:53:31;5.63;;;1.88;;
23716;SDS011;22094;52.130;5.598;2023-04-25T09:56:03;5.32;;;1.60;;
23716;SDS011;22094;52.130;5.598;2023-04-25T09:58:33;7.07;;;1.50;;
23716;SDS011;22094;52.130;5.598;2023-04-25T10:01:01;5.72;;;2.25;;
23716;SDS011;22094;52.130;5.598;2023-04-25T10:03:31;4.53;;;1.70;;
23716;SDS011;22094;52.130;5.598;2023-04-25T10:06:06;5.55;;;1.50;;
23716;SDS011;22094;52.130;5.598;2023-04-25T10:08:34;3.13;;;1.58;;
23716;SDS011;22094;52.130;5.598;2023-04-25T10:11:02;3.60;;;1.25;;
23716;SDS011;22094;52.130;5.598;2023-04-25T10:13:29;7.97;;;1.63;;
23716;SDS011;22094;52.130;5.598;2023-04-25T10:15:57;6.25;;;1.70;;
23716;SDS011;22094;52.130;5.598;2023-04-25T10:18:23;8.82;;;1.80;;
23716;SDS011;22094;52.130;5.598;2023-04-25T10:20:54;5.25;;;1.85;;
23716;SDS011;22094;52.130;5.598;2023-04-25T10:23:21;7.22;;;1.90;;
23716;SDS011;22094;52.130;5.598;2023-04-25T10:25:48;3.60;;;1.60;;
23716;SDS011;22094;52.130;5.598;2023-04-25T10:28:15;6.22;;;1.75;;
23716;SDS011;22094;52.130;5.598;2023-04-25T10:33:29;10.10;;;1.90;;
23716;SDS011;22094;52.130;5.598;2023-04-25T10:36:08;3.60;;;1.60;;
23716;SDS011;22094;52.130;5.598;2023-04-25T10:38:38;7.32;;;1.67;;
23716;SDS011;22094;52.130;5.598;2023-04-25T10:41:05;6.45;;;1.50;;
23716;SDS011;22094;52.130;5.598;2023-04-25T10:43:35;4.07;;;1.63;;
23716;SDS011;22094;52.130;5.598;2023-04-25T10:46:23;5.75;;;1.55;;
23716;SDS011;22094;52.130;5.598;2023-04-25T10:48:49;5.30;;;1.60;;
23716;SDS011;22094;52.130;5.598;2023-04-25T10:53:43;5.85;;;1.65;;
23716;SDS011;22094;52.130;5.598;2023-04-25T10:56:19;6.40;;;2.03;;
23716;SDS011;22094;52.130;5.598;2023-04-25T10:58:46;6.55;;;1.50;;
23716;SDS011;22094;52.130;5.598;2023-04-25T11:01:13;5.55;;;1.55;;
23716;SDS011;22094;52.130;5.598;2023-04-25T11:03:42;4.80;;;1.40;;
23716;SDS011;22094;52.130;5.598;2023-04-25T11:09:19;5.90;;;1.50;;
23716;SDS011;22094;52.130;5.598;2023-04-25T11:11:55;4.72;;;1.35;;
23716;SDS011;22094;52.130;5.598;2023-04-25T11:14:22;4.43;;;1.35;;
23716;SDS011;22094;52.130;5.598;2023-04-25T11:16:57;3.72;;;1.10;;
23716;SDS011;22094;52.130;5.598;2023-04-25T11:19:24;3.90;;;1.30;;
23716;SDS011;22094;52.130;5.598;2023-04-25T11:21:50;5.68;;;1.52;;
23716;SDS011;22094;52.130;5.598;2023-04-25T11:24:21;5.13;;;1.60;;
23716;SDS011;22094;52.130;5.598;2023-04-25T11:27:00;6.25;;;1.65;;
23716;SDS011;22094;52.130;5.598;2023-04-25T11:29:31;4.13;;;1.45;;
23716;SDS011;22094;52.130;5.598;2023-04-25T11:31:57;6.88;;;1.38;;
23716;SDS011;22094;52.130;5.598;2023-04-25T11:34:24;4.65;;;1.50;;
23716;SDS011;22094;52.130;5.598;2023-04-25T11:36:50;6.25;;;2.15;;
23716;SDS011;22094;52.130;5.598;2023-04-25T11:39:17;5.38;;;2.05;;
23716;SDS011;22094;52.130;5.598;2023-04-25T11:41:47;4.90;;;1.83;;
23716;SDS011;22094;52.130;5.598;2023-04-25T11:44:17;6.95;;;2.05;;
23716;SDS011;22094;52.130;5.598;2023-04-25T11:46:43;7.32;;;2.05;;
23716;SDS011;22094;52.130;5.598;2023-04-25T11:49:09;8.27;;;1.70;;
23716;SDS011;22094;52.130;5.598;2023-04-25T11:51:42;6.45;;;2.20;;
23716;SDS011;22094;52.130;5.598;2023-04-25T11:54:12;6.55;;;1.90;;
23716;SDS011;22094;52.130;5.598;2023-04-25T11:56:45;5.63;;;1.40;;
23716;SDS011;22094;52.130;5.598;2023-04-25T11:59:11;8.52;;;1.88;;
23716;SDS011;22094;52.130;5.598;2023-04-25T12:01:38;8.27;;;2.08;;
23716;SDS011;22094;52.130;5.598;2023-04-25T12:04:15;5.28;;;1.60;;
23716;SDS011;22094;52.130;5.598;2023-04-25T12:06:41;4.80;;;1.65;;
23716;SDS011;22094;52.130;5.598;2023-04-25T12:09:09;7.65;;;1.80;;
23716;SDS011;22094;52.130;5.598;2023-04-25T12:11:43;4.50;;;1.90;;
23716;SDS011;22094;52.130;5.598;2023-04-25T12:14:19;7.82;;;2.30;;
23716;SDS011;22094;52.130;5.598;2023-04-25T12:16:55;6.25;;;1.90;;
23716;SDS011;22094;52.130;5.598;2023-04-25T12:19:24;7.50;;;2.05;;
23716;SDS011;22094;52.130;5.598;2023-04-25T12:21:51;7.63;;;1.90;;
23716;SDS011;22094;52.130;5.598;2023-04-25T12:24:18;5.28;;;1.70;;
23716;SDS011;22094;52.130;5.598;2023-04-25T12:26:52;4.10;;;1.60;;
23716;SDS011;22094;52.130;5.598;2023-04-25T12:29:22;5.47;;;1.90;;
23716;SDS011;22094;52.130;5.598;2023-04-25T12:31:49;6.53;;;1.48;;
23716;SDS011;22094;52.130;5.598;2023-04-25T12:34:19;5.95;;;1.58;;
23716;SDS011;22094;52.130;5.598;2023-04-25T12:36:45;4.88;;;1.50;;
23716;SDS011;22094;52.130;5.598;2023-04-25T12:39:29;2.75;;;1.48;;
23716;SDS011;22094;52.130;5.598;2023-04-25T12:41:54;3.22;;;1.35;;
23716;SDS011;22094;52.130;5.598;2023-04-25T12:44:20;3.92;;;1.40;;
23716;SDS011;22094;52.130;5.598;2023-04-25T12:46:47;6.45;;;1.88;;
23716;SDS011;22094;52.130;5.598;2023-04-25T12:49:13;5.20;;;1.67;;
23716;SDS011;22094;52.130;5.598;2023-04-25T12:51:39;7.50;;;1.80;;
23716;SDS011;22094;52.130;5.598;2023-04-25T12:54:06;3.40;;;1.55;;
23716;SDS011;22094;52.130;5.598;2023-04-25T12:56:33;3.78;;;1.48;;
23716;SDS011;22094;52.130;5.598;2023-04-25T12:58:59;5.22;;;1.52;;
23716;SDS011;22094;52.130;5.598;2023-04-25T13:01:25;4.13;;;1.70;;
23716;SDS011;22094;52.130;5.598;2023-04-25T13:03:51;5.75;;;1.55;;
23716;SDS011;22094;52.130;5.598;2023-04-25T13:06:18;3.08;;;1.20;;
23716;SDS011;22094;52.130;5.598;2023-04-25T13:08:44;4.65;;;1.10;;
23716;SDS011;22094;52.130;5.598;2023-04-25T13:11:10;2.25;;;1.00;;
23716;SDS011;22094;52.130;5.598;2023-04-25T13:13:36;4.00;;;1.20;;
23716;SDS011;22094;52.130;5.598;2023-04-25T13:16:05;3.53;;;1.30;;
23716;SDS011;22094;52.130;5.598;2023-04-25T13:18:32;2.10;;;1.10;;
23716;SDS011;22094;52.130;5.598;2023-04-25T13:20:58;4.38;;;1.60;;
23716;SDS011;22094;52.130;5.598;2023-04-25T13:23:25;4.05;;;1.52;;
23716;SDS011;22094;52.130;5.598;2023-04-25T13:25:51;4.22;;;1.27;;
23716;SDS011;22094;52.130;5.598;2023-04-25T13:28:17;4.22;;;1.40;;
23716;SDS011;22094;52.130;5.598;2023-04-25T13:30:44;7.07;;;1.60;;
23716;SDS011;22094;52.130;5.598;2023-04-25T13:33:10;5.13;;;1.35;;
23716;SDS011;22094;52.130;5.598;2023-04-25T13:35:37;5.75;;;1.30;;
23716;SDS011;22094;52.130;5.598;2023-04-25T13:38:03;6.82;;;2.03;;
23716;SDS011;22094;52.130;5.598;2023-04-25T13:40:29;11.63;;;2.20;;
23716;SDS011;22094;52.130;5.598;2023-04-25T13:42:55;8.10;;;1.90;;
23716;SDS011;22094;52.130;5.598;2023-04-25T13:45:21;4.35;;;1.50;;
23716;SDS011;22094;52.130;5.598;2023-04-25T13:47:46;8.35;;;1.83;;
23716;SDS011;22094;52.130;5.598;2023-04-25T13:50:12;7.55;;;1.70;;
23716;SDS011;22094;52.130;5.598;2023-04-25T13:52:38;6.38;;;1.85;;
23716;SDS011;22094;52.130;5.598;2023-04-25T13:55:04;6.50;;;1.98;;
23716;SDS011;22094;52.130;5.598;2023-04-25T13:57:32;7.75;;;1.77;;
23716;SDS011;22094;52.130;5.598;2023-04-25T13:59:58;9.85;;;1.85;;
23716;SDS011;22094;52.130;5.598;2023-04-25T14:02:24;5.18;;;2.03;;
23716;SDS011;22094;52.130;5.598;2023-04-25T14:04:51;5.40;;;1.65;;
23716;SDS011;22094;52.130;5.598;2023-04-25T14:07:16;4.05;;;1.42;;
23716;SDS011;22094;52.130;5.598;2023-04-25T14:09:44;3.13;;;1.55;;
23716;SDS011;22094;52.130;5.598;2023-04-25T14:12:09;6.13;;;1.80;;
23716;SDS011;22094;52.130;5.598;2023-04-25T14:14:36;4.93;;;1.80;;
23716;SDS011;22094;52.130;5.598;2023-04-25T14:17:02;9.70;;;1.83;;
23716;SDS011;22094;52.130;5.598;2023-04-25T14:19:28;8.50;;;2.00;;
23716;SDS011;22094;52.130;5.598;2023-04-25T14:21:54;2.60;;;1.40;;
23716;SDS011;22094;52.130;5.598;2023-04-25T14:24:20;5.13;;;1.73;;
23716;SDS011;22094;52.130;5.598;2023-04-25T14:26:46;3.90;;;1.27;;
23716;SDS011;22094;52.130;5.598;2023-04-25T14:29:11;4.00;;;1.77;;
23716;SDS011;22094;52.130;5.598;2023-04-25T14:31:38;4.85;;;1.60;;
23716;SDS011;22094;52.130;5.598;2023-04-25T14:34:04;5.63;;;1.60;;
23716;SDS011;22094;52.130;5.598;2023-04-25T14:36:31;2.95;;;1.23;;
23716;SDS011;22094;52.130;5.598;2023-04-25T14:38:57;5.28;;;1.63;;
23716;SDS011;22094;52.130;5.598;2023-04-25T14:41:23;3.60;;;1.40;;
23716;SDS011;22094;52.130;5.598;2023-04-25T14:43:49;2.80;;;1.20;;
23716;SDS011;22094;52.130;5.598;2023-04-25T14:46:16;6.28;;;1.70;;
23716;SDS011;22094;52.130;5.598;2023-04-25T14:48:45;6.40;;;1.60;;
23716;SDS011;22094;52.130;5.598;2023-04-25T14:51:10;6.45;;;1.85;;
23716;SDS011;22094;52.130;5.598;2023-04-25T14:53:36;9.00;;;1.98;;
23716;SDS011;22094;52.130;5.598;2023-04-25T14:56:02;6.72;;;1.70;;